createdAt,value
2023-05-25T00:01:03.595Z,14.70
2023-05-25T00:03:34.075Z,17.27
2023-05-25T00:06:04.289Z,22.23
2023-05-25T00:08:31.525Z,21.17
2023-05-25T00:10:58.521Z,23.87
2023-05-25T00:13:25.438Z,17.50
2023-05-25T00:15:52.480Z,16.10
2023-05-25T00:18:19.466Z,19.23
2023-05-25T00:20:47.828Z,24.93
2023-05-25T00:23:15.028Z,26.10
2023-05-25T00:25:42.186Z,26.20
2023-05-25T00:28:11.319Z,23.90
2023-05-25T00:30:38.244Z,23.40
2023-05-25T00:33:05.492Z,24.90
2023-05-25T00:35:32.444Z,28.70
2023-05-25T00:37:59.513Z,22.57
2023-05-25T00:40:26.407Z,23.57
2023-05-25T00:42:53.656Z,22.20
2023-05-25T00:45:20.559Z,21.93
2023-05-25T00:47:51.934Z,23.90
2023-05-25T00:50:30.784Z,29.37
2023-05-25T00:52:58.081Z,30.97
2023-05-25T00:55:30.162Z,25.93
2023-05-25T00:58:00.913Z,31.20
2023-05-25T01:00:30.816Z,24.17
2023-05-25T01:03:00.158Z,26.53
2023-05-25T01:05:29.620Z,23.07
2023-05-25T01:08:02.196Z,32.27
2023-05-25T01:10:36.456Z,25.73
2023-05-25T01:13:04.921Z,36.93
2023-05-25T01:15:33.385Z,27.60
2023-05-25T01:18:00.739Z,27.20
2023-05-25T01:20:30.936Z,27.93
2023-05-25T01:23:03.859Z,28.50
2023-05-25T01:25:40.265Z,34.93
2023-05-25T01:28:32.197Z,24.27
2023-05-25T01:31:00.285Z,29.03
2023-05-25T01:33:28.905Z,34.00
2023-05-25T01:35:57.081Z,28.90
2023-05-25T01:38:23.936Z,29.10
2023-05-25T01:40:50.855Z,27.43
2023-05-25T01:43:18.123Z,30.67
2023-05-25T01:45:45.404Z,30.80
2023-05-25T01:48:26.158Z,28.07
2023-05-25T01:51:02.696Z,33.70
2023-05-25T01:53:34.299Z,30.10
2023-05-25T01:56:05.319Z,34.00
2023-05-25T01:58:40.203Z,27.70
2023-05-25T02:01:08.833Z,34.70
2023-05-25T02:03:37.709Z,39.50
2023-05-25T02:06:05.160Z,38.10
2023-05-25T02:08:32.252Z,38.53
2023-05-25T02:10:59.368Z,32.73
2023-05-25T02:13:26.294Z,27.03
2023-05-25T02:15:53.701Z,41.33
2023-05-25T02:18:20.598Z,27.10
2023-05-25T02:20:47.904Z,27.50
2023-05-25T02:23:15.058Z,39.93
2023-05-25T02:25:43.073Z,28.63
2023-05-25T02:28:12.091Z,33.23
2023-05-25T02:30:39.516Z,28.87
2023-05-25T02:33:06.581Z,26.03
2023-05-25T02:35:33.606Z,46.60
2023-05-25T02:38:00.586Z,33.97
2023-05-25T02:40:27.548Z,50.83
2023-05-25T02:42:54.601Z,40.80
2023-05-25T02:45:21.358Z,39.30
2023-05-25T02:47:48.325Z,48.00
2023-05-25T02:50:15.337Z,44.13
2023-05-25T02:52:42.196Z,41.10
2023-05-25T02:55:10.624Z,42.23
2023-05-25T02:57:39.219Z,42.23
2023-05-25T03:00:12.215Z,41.53
2023-05-25T03:02:39.420Z,31.70
2023-05-25T03:05:07.756Z,40.17
2023-05-25T03:07:34.880Z,35.33
2023-05-25T03:10:01.737Z,31.83
2023-05-25T03:12:28.614Z,35.47
2023-05-25T03:14:55.798Z,32.37
2023-05-25T03:17:22.795Z,36.73
2023-05-25T03:19:49.925Z,34.30
2023-05-25T03:22:17.585Z,32.33
2023-05-25T03:24:44.685Z,40.63
2023-05-25T03:27:12.252Z,41.70
2023-05-25T03:29:39.174Z,32.93
2023-05-25T03:32:06.660Z,39.37
2023-05-25T03:34:34.918Z,36.13
2023-05-25T03:37:02.245Z,39.33
2023-05-25T03:39:29.225Z,43.90
2023-05-25T03:41:58.857Z,38.93
2023-05-25T03:44:25.878Z,33.70
2023-05-25T03:46:52.708Z,43.30
2023-05-25T03:49:19.459Z,37.40
2023-05-25T03:51:46.440Z,37.13
2023-05-25T03:54:13.720Z,30.23
2023-05-25T03:56:40.578Z,32.37
2023-05-25T03:59:07.584Z,36.83
2023-05-25T04:01:38.382Z,32.77
2023-05-25T04:04:06.916Z,35.90
2023-05-25T04:06:37.410Z,33.93
2023-05-25T04:09:05.226Z,31.67
2023-05-25T04:11:32.301Z,33.87
2023-05-25T04:14:00.166Z,28.30
2023-05-25T04:16:27.394Z,27.23
2023-05-25T04:18:54.523Z,24.33
2023-05-25T04:21:21.579Z,20.07
2023-05-25T04:23:48.490Z,17.27
2023-05-25T04:26:16.769Z,12.70
2023-05-25T04:28:43.710Z,12.63
2023-05-25T04:31:13.066Z,11.47
2023-05-25T04:33:40.868Z,14.07
2023-05-25T04:36:11.565Z,9.20
2023-05-25T04:38:38.686Z,8.43
2023-05-25T04:41:06.681Z,10.83
2023-05-25T04:43:34.045Z,6.60
2023-05-25T04:46:01.287Z,5.73
2023-05-25T04:48:34.675Z,10.33
2023-05-25T04:51:04.948Z,9.90
2023-05-25T04:53:32.517Z,10.57
2023-05-25T04:55:59.599Z,8.47
2023-05-25T04:58:26.585Z,7.50
2023-05-25T05:00:53.435Z,11.50
2023-05-25T05:03:21.002Z,7.60
2023-05-25T05:05:48.145Z,8.93
2023-05-25T05:08:15.127Z,9.60
2023-05-25T05:10:42.468Z,7.70
2023-05-25T05:13:11.463Z,8.23
2023-05-25T05:15:38.487Z,6.30
2023-05-25T05:18:06.566Z,7.07
2023-05-25T05:20:33.891Z,6.43
2023-05-25T05:23:00.975Z,7.00
2023-05-25T05:25:27.942Z,6.37
2023-05-25T05:27:55.054Z,6.80
2023-05-25T05:30:22.522Z,6.13
2023-05-25T05:32:49.331Z,6.00
2023-05-25T05:35:16.232Z,5.97
2023-05-25T05:37:44.354Z,7.30
2023-05-25T05:40:12.139Z,6.87
2023-05-25T05:42:39.161Z,7.27
2023-05-25T05:45:06.752Z,6.57
2023-05-25T05:47:33.495Z,7.80
2023-05-25T05:50:00.640Z,6.07
2023-05-25T05:52:27.433Z,6.63
2023-05-25T05:54:54.435Z,7.77
2023-05-25T05:57:22.314Z,7.00
2023-05-25T05:59:49.411Z,6.47
2023-05-25T06:02:16.688Z,5.70
2023-05-25T06:04:43.663Z,7.73
2023-05-25T06:07:10.761Z,7.83
2023-05-25T06:09:37.712Z,6.37
2023-05-25T06:12:04.679Z,7.93
2023-05-25T06:14:32.868Z,8.27
2023-05-25T06:16:59.845Z,9.87
2023-05-25T06:19:27.156Z,8.23
2023-05-25T06:21:54.038Z,7.73
2023-05-25T06:24:21.021Z,8.63
2023-05-25T06:26:47.874Z,6.53
2023-05-25T06:29:17.002Z,8.63
2023-05-25T06:31:44.417Z,10.83
2023-05-25T06:34:11.355Z,11.73
2023-05-25T06:36:38.347Z,10.90
2023-05-25T06:39:05.327Z,10.20
2023-05-25T06:41:32.632Z,11.03
2023-05-25T06:43:59.426Z,10.37
2023-05-25T06:46:26.422Z,9.00
2023-05-25T06:48:53.483Z,11.40
2023-05-25T06:51:20.401Z,10.43
2023-05-25T06:53:47.331Z,13.00
2023-05-25T06:56:14.399Z,12.53
2023-05-25T06:58:41.696Z,9.77
2023-05-25T07:01:08.601Z,9.63
2023-05-25T07:03:35.894Z,11.23
2023-05-25T07:06:03.031Z,9.27
2023-05-25T07:08:30.056Z,11.47
2023-05-25T07:10:57.191Z,10.73
2023-05-25T07:13:24.194Z,9.80
2023-05-25T07:15:52.983Z,11.10
2023-05-25T07:18:19.884Z,9.20
2023-05-25T07:20:48.544Z,13.37
2023-05-25T07:23:15.467Z,14.03
2023-05-25T07:25:42.583Z,13.20
2023-05-25T07:28:09.941Z,13.57
2023-05-25T07:30:36.879Z,11.53
2023-05-25T07:33:03.990Z,11.47
2023-05-25T07:35:31.022Z,13.80
2023-05-25T07:38:04.512Z,15.90
2023-05-25T07:40:31.431Z,12.63
2023-05-25T07:42:58.401Z,10.93
2023-05-25T07:45:25.496Z,10.73
2023-05-25T07:47:52.693Z,11.97
2023-05-25T07:50:19.949Z,12.93
2023-05-25T07:52:50.539Z,14.10
2023-05-25T07:55:19.541Z,12.77
2023-05-25T07:57:46.479Z,13.33
2023-05-25T08:00:13.933Z,13.27
2023-05-25T08:02:41.355Z,14.83
2023-05-25T08:05:09.045Z,14.43
2023-05-25T08:07:36.870Z,10.57
2023-05-25T08:10:04.605Z,11.57
2023-05-25T08:12:46.918Z,13.40
2023-05-25T08:15:15.197Z,13.57
2023-05-25T08:17:42.456Z,11.37
2023-05-25T08:20:10.819Z,11.50
2023-05-25T08:22:38.031Z,11.73
2023-05-25T08:25:05.636Z,11.83
2023-05-25T08:27:35.426Z,13.47
2023-05-25T08:30:03.295Z,12.43
2023-05-25T08:32:30.376Z,10.63
2023-05-25T08:34:57.343Z,12.17
2023-05-25T08:37:25.069Z,12.67
2023-05-25T08:39:52.179Z,13.93
2023-05-25T08:42:19.148Z,13.27
2023-05-25T08:44:46.216Z,11.03
2023-05-25T08:47:15.531Z,9.43
2023-05-25T08:49:45.467Z,11.70
2023-05-25T08:52:15.653Z,13.43
2023-05-25T08:54:48.391Z,14.32
2023-05-25T08:57:26.152Z,14.50
2023-05-25T08:59:56.537Z,11.20
2023-05-25T09:02:33.533Z,13.43
2023-05-25T09:05:02.450Z,13.47
2023-05-25T09:07:30.655Z,15.20
2023-05-25T09:10:01.209Z,11.30
2023-05-25T09:12:31.755Z,14.33
2023-05-25T09:14:59.343Z,14.30
2023-05-25T09:17:27.076Z,13.47
2023-05-25T09:19:54.654Z,9.30
2023-05-25T09:22:22.219Z,10.57
2023-05-25T09:24:49.513Z,12.17
2023-05-25T09:27:23.103Z,14.33
2023-05-25T09:29:50.980Z,13.33
2023-05-25T09:32:21.173Z,15.13
2023-05-25T09:34:48.376Z,14.10
2023-05-25T09:37:19.461Z,14.83
2023-05-25T09:39:48.098Z,14.37
2023-05-25T09:42:15.205Z,15.07
2023-05-25T09:44:43.398Z,15.67
2023-05-25T09:47:11.155Z,15.40
2023-05-25T09:49:38.910Z,15.17
2023-05-25T09:52:07.199Z,17.70
2023-05-25T09:54:34.139Z,14.13
2023-05-25T09:57:04.358Z,13.87
2023-05-25T09:59:32.046Z,15.00
2023-05-25T10:01:59.715Z,14.70
2023-05-25T10:04:26.715Z,11.90
2023-05-25T10:06:57.026Z,13.50
2023-05-25T10:09:26.291Z,13.00
2023-05-25T10:11:55.050Z,14.90
2023-05-25T10:14:29.121Z,14.17
2023-05-25T10:16:59.603Z,16.30
2023-05-25T10:19:34.674Z,17.33
2023-05-25T10:22:15.883Z,17.27
2023-05-25T10:25:03.706Z,18.90
2023-05-25T10:27:38.021Z,16.20
2023-05-25T10:30:06.426Z,16.70
2023-05-25T10:32:35.222Z,17.93
2023-05-25T10:35:03.727Z,14.20
2023-05-25T10:37:32.034Z,16.07
2023-05-25T10:40:00.582Z,14.57
2023-05-25T10:42:28.946Z,17.67
2023-05-25T10:44:58.032Z,15.60
2023-05-25T10:47:25.966Z,18.63
2023-05-25T10:49:58.220Z,21.53
2023-05-25T10:52:29.879Z,15.10
2023-05-25T10:54:58.635Z,15.87
2023-05-25T10:57:26.440Z,18.93
2023-05-25T11:00:00.335Z,16.53
2023-05-25T11:02:32.399Z,17.33
2023-05-25T11:05:27.362Z,14.83
2023-05-25T11:07:58.169Z,13.27
2023-05-25T11:10:49.383Z,15.80
2023-05-25T11:13:31.799Z,19.33
2023-05-25T11:16:20.850Z,12.73
2023-05-25T11:18:59.298Z,17.80
2023-05-25T11:21:30.609Z,16.47
2023-05-25T11:24:11.057Z,18.33
2023-05-25T11:26:38.106Z,14.37
2023-05-25T11:29:16.348Z,18.63
2023-05-25T11:31:43.973Z,14.63
2023-05-25T11:34:12.575Z,19.67
2023-05-25T11:36:39.911Z,19.47
2023-05-25T11:39:17.154Z,20.73
2023-05-25T11:41:57.227Z,20.03
2023-05-25T11:44:28.871Z,22.17
2023-05-25T11:46:57.960Z,17.97
2023-05-25T11:49:26.065Z,15.27
2023-05-25T11:51:54.180Z,17.70
2023-05-25T11:54:28.542Z,17.43
2023-05-25T11:57:00.200Z,17.00
2023-05-25T11:59:29.788Z,16.83
2023-05-25T12:02:00.864Z,19.40
2023-05-25T12:04:29.181Z,16.97
2023-05-25T12:07:06.640Z,17.70
2023-05-25T12:09:34.841Z,16.20
2023-05-25T12:12:04.580Z,18.90
2023-05-25T12:14:35.173Z,19.23
2023-05-25T12:17:02.512Z,17.03
2023-05-25T12:19:29.831Z,15.77
2023-05-25T12:21:56.983Z,21.77
2023-05-25T12:26:59.003Z,18.30
2023-05-25T12:29:26.667Z,15.50
2023-05-25T12:31:53.763Z,22.13
2023-05-25T12:34:21.388Z,16.97
2023-05-25T12:36:48.260Z,20.43
2023-05-25T12:39:16.885Z,20.87
2023-05-25T12:41:55.072Z,17.07
2023-05-25T12:44:24.794Z,18.00
2023-05-25T12:46:53.297Z,19.33
2023-05-25T12:49:33.233Z,17.67
2023-05-25T12:52:02.569Z,20.83
2023-05-25T12:54:47.661Z,17.50
2023-05-25T12:57:16.431Z,20.20
2023-05-25T12:59:47.437Z,24.63
2023-05-25T13:02:15.220Z,17.33
2023-05-25T13:04:42.990Z,17.63
2023-05-25T13:07:10.653Z,18.47
2023-05-25T13:09:38.057Z,21.00
2023-05-25T13:12:05.290Z,19.60
2023-05-25T13:14:32.446Z,21.63
2023-05-25T13:16:59.484Z,19.23
2023-05-25T13:19:27.350Z,21.80
2023-05-25T13:21:56.474Z,22.03
2023-05-25T13:24:23.683Z,23.47
2023-05-25T13:26:51.231Z,19.50
2023-05-25T13:29:18.370Z,21.23
2023-05-25T13:31:45.621Z,21.73
2023-05-25T13:34:13.252Z,20.13
2023-05-25T13:36:40.283Z,22.43
2023-05-25T13:39:07.906Z,20.70
2023-05-25T13:41:34.841Z,17.20
2023-05-25T13:44:01.597Z,18.27
2023-05-25T13:46:34.778Z,20.27
2023-05-25T13:49:04.812Z,19.17
2023-05-25T13:51:31.823Z,19.70
2023-05-25T13:53:58.940Z,21.03
2023-05-25T13:56:25.801Z,20.27
2023-05-25T13:58:52.969Z,19.17
2023-05-25T14:01:20.395Z,22.70
2023-05-25T14:03:47.729Z,23.73
2023-05-25T14:06:14.951Z,22.17
2023-05-25T14:08:41.935Z,20.17
2023-05-25T14:11:10.798Z,16.87
2023-05-25T14:13:37.747Z,19.13
2023-05-25T14:16:04.694Z,22.63
2023-05-25T14:18:31.652Z,21.40
2023-05-25T14:20:58.650Z,21.63
2023-05-25T14:23:25.704Z,18.20
2023-05-25T14:25:52.832Z,21.77
2023-05-25T14:28:19.923Z,27.23
2023-05-25T14:30:46.943Z,22.63
2023-05-25T14:33:16.076Z,23.97
2023-05-25T14:35:43.471Z,22.37
2023-05-25T14:38:10.903Z,26.10
2023-05-25T14:40:38.077Z,20.50
2023-05-25T14:43:05.049Z,21.97
2023-05-25T14:45:33.477Z,23.17
2023-05-25T14:48:15.169Z,22.53
2023-05-25T14:50:44.652Z,25.77
2023-05-25T14:53:12.100Z,24.53
2023-05-25T14:55:39.168Z,22.30
2023-05-25T14:58:06.016Z,20.57
2023-05-25T15:00:32.951Z,23.03
2023-05-25T15:03:00.085Z,23.30
2023-05-25T15:05:27.212Z,21.40
2023-05-25T15:07:54.108Z,19.23
2023-05-25T15:10:21.025Z,27.13
2023-05-25T15:12:48.140Z,25.47
2023-05-25T15:15:15.581Z,24.10
2023-05-25T15:17:42.630Z,24.30
2023-05-25T15:20:12.305Z,22.17
2023-05-25T15:22:39.127Z,27.13
2023-05-25T15:25:06.391Z,22.10
2023-05-25T15:27:35.016Z,22.70
2023-05-25T15:30:02.091Z,20.47
2023-05-25T15:32:29.017Z,25.57
2023-05-25T15:34:55.909Z,28.30
2023-05-25T15:37:22.896Z,21.57
2023-05-25T15:39:50.574Z,26.67
2023-05-25T15:42:17.390Z,20.70
2023-05-25T15:44:44.234Z,23.83
2023-05-25T15:47:11.170Z,24.77
2023-05-25T15:49:38.384Z,22.03
2023-05-25T15:52:06.787Z,32.00
2023-05-25T15:54:33.806Z,27.27
2023-05-25T15:57:02.292Z,23.20
2023-05-25T15:59:29.300Z,22.17
2023-05-25T16:01:56.181Z,23.03
2023-05-25T16:04:23.379Z,26.33
2023-05-25T16:06:50.345Z,27.57
2023-05-25T16:09:17.333Z,37.97
2023-05-25T16:11:45.787Z,28.77
2023-05-25T16:14:12.954Z,25.70
2023-05-25T16:16:39.817Z,26.97
2023-05-25T16:19:07.900Z,24.60
2023-05-25T16:21:37.895Z,22.47
2023-05-25T16:24:06.531Z,24.80
2023-05-25T16:26:35.210Z,22.77
2023-05-25T16:29:02.622Z,21.40
2023-05-25T16:31:29.635Z,21.40
2023-05-25T16:33:56.815Z,24.53
2023-05-25T16:36:25.293Z,27.87
2023-05-25T16:38:53.546Z,25.70
2023-05-25T16:41:20.428Z,29.40
2023-05-25T16:43:47.703Z,27.10
2023-05-25T16:46:15.096Z,24.13
2023-05-25T16:48:42.434Z,21.73
2023-05-25T16:51:15.308Z,26.93
2023-05-25T16:53:43.815Z,21.13
2023-05-25T16:56:11.169Z,21.00
2023-05-25T16:58:38.017Z,22.87
2023-05-25T17:01:05.060Z,18.83
2023-05-25T17:03:32.412Z,28.77
2023-05-25T17:05:59.549Z,21.40
2023-05-25T17:08:26.607Z,21.77
2023-05-25T17:10:54.048Z,18.07
2023-05-25T17:13:21.371Z,21.97
2023-05-25T17:15:48.826Z,19.10
2023-05-25T17:18:16.242Z,18.30
2023-05-25T17:20:43.400Z,29.50
2023-05-25T17:23:10.440Z,21.30
2023-05-25T17:25:39.287Z,20.53
2023-05-25T17:28:06.583Z,19.33
2023-05-25T17:30:34.818Z,24.10
2023-05-25T17:33:02.096Z,24.40
2023-05-25T17:35:31.639Z,24.60
2023-05-25T17:37:58.610Z,26.93
2023-05-25T17:40:25.690Z,18.90
2023-05-25T17:42:52.790Z,26.23
2023-05-25T17:45:20.055Z,21.63
2023-05-25T17:47:47.098Z,21.57
2023-05-25T17:50:14.131Z,24.23
2023-05-25T17:52:41.189Z,23.20
2023-05-25T17:55:09.340Z,20.13
2023-05-25T17:57:36.670Z,25.47
2023-05-25T18:00:04.481Z,22.70
2023-05-25T18:02:31.688Z,25.10
2023-05-25T18:04:59.368Z,22.57
2023-05-25T18:07:26.386Z,21.30
2023-05-25T18:09:53.266Z,21.23
2023-05-25T18:12:20.347Z,28.40
2023-05-25T18:14:47.808Z,18.60
2023-05-25T18:17:14.851Z,20.27
2023-05-25T18:19:41.902Z,24.50
2023-05-25T18:22:08.999Z,23.63
2023-05-25T18:24:36.752Z,19.53
2023-05-25T18:27:07.260Z,21.83
2023-05-25T18:29:34.436Z,30.63
2023-05-25T18:32:01.553Z,26.93
2023-05-25T18:34:29.791Z,21.33
2023-05-25T18:36:56.878Z,22.57
2023-05-25T18:39:23.744Z,26.70
2023-05-25T18:41:50.761Z,25.87
2023-05-25T18:44:17.712Z,20.97
2023-05-25T18:46:46.750Z,22.67
2023-05-25T18:49:13.993Z,20.93
2023-05-25T18:51:41.090Z,22.17
2023-05-25T18:54:08.311Z,24.47
2023-05-25T18:56:35.231Z,24.43
2023-05-25T18:59:02.238Z,22.73
2023-05-25T19:01:29.250Z,25.00
2023-05-25T19:03:58.539Z,25.30
2023-05-25T19:06:27.401Z,25.80
2023-05-25T19:08:55.437Z,21.20
2023-05-25T19:11:22.690Z,27.07
2023-05-25T19:13:49.538Z,23.50
2023-05-25T19:16:16.963Z,24.87
2023-05-25T19:18:44.366Z,22.97
2023-05-25T19:21:11.532Z,27.37
2023-05-25T19:23:38.408Z,22.43
2023-05-25T19:26:05.475Z,21.23
2023-05-25T19:28:33.473Z,28.97
2023-05-25T19:31:01.347Z,23.73
2023-05-25T19:33:28.471Z,21.47
2023-05-25T19:35:55.402Z,23.27
2023-05-25T19:38:24.694Z,21.73
2023-05-25T19:40:53.596Z,20.83
2023-05-25T19:43:20.594Z,23.23
2023-05-25T19:45:47.843Z,21.50
2023-05-25T19:48:15.011Z,24.10
2023-05-25T19:50:42.196Z,26.17
2023-05-25T19:53:09.048Z,23.37
2023-05-25T19:55:37.037Z,24.87
2023-05-25T19:58:04.044Z,21.33
2023-05-25T20:00:32.441Z,18.73
2023-05-25T20:02:59.849Z,21.87
2023-05-25T20:05:27.095Z,23.63
2023-05-25T20:07:56.093Z,19.77
2023-05-25T20:10:23.207Z,27.90
2023-05-25T20:12:49.960Z,25.80
2023-05-25T20:15:17.461Z,24.00
2023-05-25T20:17:46.933Z,25.10
2023-05-25T20:20:16.377Z,27.40
2023-05-25T20:22:43.322Z,25.53
2023-05-25T20:25:10.236Z,23.87
2023-05-25T20:27:37.062Z,22.33
2023-05-25T20:30:04.415Z,23.27
2023-05-25T20:32:31.549Z,29.93
2023-05-25T20:34:58.654Z,29.27
2023-05-25T20:37:25.623Z,29.03
2023-05-25T20:39:52.662Z,31.40
2023-05-25T20:42:19.672Z,23.50
2023-05-25T20:44:46.660Z,23.37
2023-05-25T20:47:16.556Z,26.37
2023-05-25T20:49:43.423Z,31.53
2023-05-25T20:52:10.232Z,25.27
2023-05-25T20:54:39.574Z,27.83
2023-05-25T20:57:08.055Z,24.47
2023-05-25T20:59:34.885Z,26.93
2023-05-25T21:02:02.218Z,21.53
2023-05-25T21:04:31.098Z,35.60
2023-05-25T21:06:58.972Z,23.83
2023-05-25T21:09:26.560Z,24.50
2023-05-25T21:11:53.473Z,31.57
2023-05-25T21:14:20.322Z,28.87
2023-05-25T21:16:47.353Z,33.73
2023-05-25T21:19:14.515Z,29.73
2023-05-25T21:21:41.518Z,25.20
2023-05-25T21:24:08.710Z,29.87
2023-05-25T21:26:35.544Z,29.47
2023-05-25T21:29:02.368Z,28.43
2023-05-25T21:31:29.689Z,27.73
2023-05-25T21:33:58.257Z,27.83
2023-05-25T21:36:26.283Z,25.77
2023-05-25T21:38:53.287Z,28.77
2023-05-25T21:41:20.519Z,35.50
2023-05-25T21:43:48.472Z,27.63
2023-05-25T21:46:15.411Z,27.00
2023-05-25T21:48:42.334Z,29.80
2023-05-25T21:51:09.352Z,31.93
2023-05-25T21:53:39.779Z,29.37
2023-05-25T21:56:06.665Z,34.97
2023-05-25T21:58:33.716Z,28.63
2023-05-25T22:01:00.783Z,30.67
2023-05-25T22:03:28.168Z,33.40
2023-05-25T22:05:55.099Z,25.20
2023-05-25T22:08:22.189Z,30.10
2023-05-25T22:10:49.647Z,32.53
2023-05-25T22:13:17.071Z,30.97
2023-05-25T22:15:44.944Z,30.90
2023-05-25T22:18:12.225Z,28.83
2023-05-25T22:20:41.664Z,31.10
2023-05-25T22:23:10.997Z,35.30
2023-05-25T22:25:38.095Z,34.37
2023-05-25T22:28:05.187Z,36.63
2023-05-25T22:30:32.215Z,30.80
2023-05-25T22:32:59.429Z,29.93
2023-05-25T22:35:26.541Z,26.10
2023-05-25T22:37:53.481Z,31.27
2023-05-25T22:40:20.465Z,26.70
2023-05-25T22:42:50.479Z,32.87
2023-05-25T22:45:18.991Z,30.77
2023-05-25T22:47:45.982Z,29.37
2023-05-25T22:50:13.345Z,34.60
2023-05-25T22:52:43.169Z,26.90
2023-05-25T22:55:11.155Z,31.20
2023-05-25T22:57:38.334Z,25.83
2023-05-25T23:00:06.094Z,30.20
2023-05-25T23:02:33.300Z,39.37
2023-05-25T23:05:00.382Z,33.67
2023-05-25T23:07:27.500Z,30.00
2023-05-25T23:09:54.372Z,26.60
2023-05-25T23:12:21.447Z,30.43
2023-05-25T23:14:48.469Z,31.13
2023-05-25T23:17:15.403Z,27.90
2023-05-25T23:19:44.973Z,28.43
2023-05-25T23:22:12.535Z,32.13
2023-05-25T23:24:40.637Z,29.63
2023-05-25T23:27:08.075Z,26.73
2023-05-25T23:29:35.141Z,22.17
2023-05-25T23:32:02.048Z,24.17
2023-05-25T23:34:29.124Z,32.80
2023-05-25T23:36:55.993Z,30.33
2023-05-25T23:39:22.953Z,31.07
2023-05-25T23:41:49.890Z,27.83
2023-05-25T23:44:16.885Z,29.97
2023-05-25T23:46:43.900Z,23.87
2023-05-25T23:49:10.871Z,23.30
2023-05-25T23:51:38.145Z,24.17
2023-05-25T23:54:05.118Z,32.60
2023-05-25T23:56:32.878Z,29.27
2023-05-25T23:58:59.779Z,21.07
